Time;durP1;ratioP1;P1;durP2;ratioP2;P2;SDS_P1;SDS_P2;PMS_P1;PMS_P2;Temp;Humidity;BMP_temperature;BMP_pressure;BME280_temperature;BME280_humidity;BME280_pressure;Samples;Min_cycle;Max_cycle;Signal;HPM_P1;HPM_P2
2023/10/08 00:01:42;;;;;;;500.60;213.67;;;;;;;;;;5023743;28;20180;-50
2023/10/08 00:04:10;;;;;;;594.30;262.67;;;;;;;;;;5020851;28;20569;-49
2023/10/08 00:06:37;;;;;;;502.47;203.63;;;;;;;;;;5027685;28;20192;-49
2023/10/08 00:09:07;;;;;;;575.80;252.70;;;;;;;;;;5028458;28;20234;-48
2023/10/08 00:11:34;;;;;;;495.53;205.50;;;;;;;;;;5027887;28;20798;-49
2023/10/08 00:14:01;;;;;;;518.70;215.97;;;;;;;;;;5021286;28;20236;-49
2023/10/08 00:16:28;;;;;;;462.43;187.23;;;;;;;;;;5017869;28;20822;-48
2023/10/08 00:18:58;;;;;;;512.13;217.63;;;;;;;;;;5024307;28;20276;-49
2023/10/08 00:21:27;;;;;;;506.57;214.57;;;;;;;;;;5023705;28;20188;-49
2023/10/08 00:23:59;;;;;;;511.10;208.20;;;;;;;;;;5028183;28;20187;-49
2023/10/08 00:26:31;;;;;;;509.57;211.57;;;;;;;;;;5021800;28;20218;-48
2023/10/08 00:29:06;;;;;;;518.53;217.37;;;;;;;;;;5021352;28;20203;-49
2023/10/08 00:31:37;;;;;;;506.07;213.77;;;;;;;;;;5017636;28;20268;-49
2023/10/08 00:34:05;;;;;;;512.57;227.10;;;;;;;;;;5023956;28;20721;-49
2023/10/08 00:36:33;;;;;;;489.67;197.47;;;;;;;;;;5031391;28;20491;-49
2023/10/08 00:39:00;;;;;;;497.00;205.67;;;;;;;;;;5027888;28;20273;-49
2023/10/08 00:41:32;;;;;;;504.17;212.50;;;;;;;;;;5023544;28;20179;-49
2023/10/08 00:44:05;;;;;;;511.73;217.97;;;;;;;;;;5018972;28;20191;-49
2023/10/08 00:46:55;;;;;;;462.40;189.13;;;;;;;;;;5026816;28;20233;-49
2023/10/08 00:54:32;;;;;;;468.60;192.03;;;;;;;;;;5018875;28;20396;-50
2023/10/08 00:56:58;;;;;;;488.77;201.40;;;;;;;;;;5027395;28;20595;-50
2023/10/08 00:59:25;;;;;;;516.07;220.23;;;;;;;;;;5019318;28;20203;-49
2023/10/08 01:01:53;;;;;;;475.63;194.93;;;;;;;;;;5018951;28;20195;-50
2023/10/08 01:04:26;;;;;;;489.53;203.20;;;;;;;;;;5022421;28;20192;-50
2023/10/08 01:06:59;;;;;;;480.30;197.97;;;;;;;;;;5022306;28;20184;-50
2023/10/08 01:09:37;;;;;;;507.60;215.53;;;;;;;;;;5020694;28;20562;-50
2023/10/08 01:12:12;;;;;;;530.33;229.23;;;;;;;;;;5021826;28;20542;-50
2023/10/08 01:14:42;;;;;;;485.83;198.07;;;;;;;;;;5026475;28;20202;-49
2023/10/08 01:17:08;;;;;;;527.53;221.27;;;;;;;;;;5013516;28;20207;-49
2023/10/08 01:19:41;;;;;;;519.07;212.93;;;;;;;;;;5014843;28;20706;-50
2023/10/08 01:22:10;;;;;;;513.23;216.90;;;;;;;;;;5028579;28;20180;-49
2023/10/08 01:24:36;;;;;;;525.73;225.40;;;;;;;;;;5022634;28;20183;-49
2023/10/08 01:27:09;;;;;;;459.53;188.07;;;;;;;;;;5027200;28;20245;-50
2023/10/08 01:29:36;;;;;;;510.17;216.23;;;;;;;;;;5019509;28;20350;-49
2023/10/08 01:32:02;;;;;;;484.40;200.53;;;;;;;;;;5021181;28;20188;-49
2023/10/08 01:34:35;;;;;;;474.13;195.83;;;;;;;;;;5025576;28;20192;-49
2023/10/08 01:37:04;;;;;;;503.20;205.10;;;;;;;;;;5027291;28;20238;-49
2023/10/08 01:39:32;;;;;;;536.50;234.57;;;;;;;;;;5007303;28;20203;-49
2023/10/08 01:41:58;;;;;;;535.07;222.50;;;;;;;;;;5026492;28;20191;-49
2023/10/08 01:44:24;;;;;;;491.83;202.47;;;;;;;;;;5022089;28;20257;-50
2023/10/08 01:46:50;;;;;;;495.43;206.07;;;;;;;;;;5026015;28;20191;-50
2023/10/08 01:49:21;;;;;;;541.93;234.40;;;;;;;;;;5026871;28;21126;-49
2023/10/08 01:51:47;;;;;;;492.50;211.03;;;;;;;;;;5021179;28;20790;-49
2023/10/08 01:54:17;;;;;;;454.77;186.13;;;;;;;;;;5024999;28;20198;-50
2023/10/08 01:56:43;;;;;;;512.50;212.17;;;;;;;;;;5020225;28;20202;-49
2023/10/08 01:59:11;;;;;;;624.37;292.00;;;;;;;;;;5018618;28;20481;-50
2023/10/08 02:01:38;;;;;;;459.43;186.63;;;;;;;;;;5027825;28;20188;-50
2023/10/08 02:04:04;;;;;;;552.20;249.20;;;;;;;;;;5016352;28;20186;-49
2023/10/08 02:06:32;;;;;;;527.17;231.77;;;;;;;;;;5025387;28;20394;-50
2023/10/08 02:08:58;;;;;;;477.97;198.70;;;;;;;;;;5014271;28;20709;-50
2023/10/08 02:11:27;;;;;;;537.30;241.23;;;;;;;;;;5023849;28;20587;-49
2023/10/08 02:13:53;;;;;;;496.17;201.23;;;;;;;;;;5023135;28;20291;-50
2023/10/08 02:16:19;;;;;;;578.90;258.67;;;;;;;;;;5016668;28;20714;-50
2023/10/08 02:18:46;;;;;;;506.07;212.57;;;;;;;;;;5027616;28;20340;-50
2023/10/08 02:21:12;;;;;;;484.40;205.07;;;;;;;;;;5021505;28;20184;-49
2023/10/08 02:23:38;;;;;;;499.70;209.93;;;;;;;;;;5022888;28;20668;-49
2023/10/08 02:26:05;;;;;;;464.13;194.87;;;;;;;;;;5024170;28;20666;-49
2023/10/08 02:28:33;;;;;;;498.00;214.23;;;;;;;;;;5019137;28;20720;-50
2023/10/08 02:30:59;;;;;;;455.13;186.33;;;;;;;;;;5023705;28;20188;-50
2023/10/08 02:33:26;;;;;;;469.77;194.37;;;;;;;;;;5020221;28;20239;-50
2023/10/08 02:35:53;;;;;;;499.63;206.53;;;;;;;;;;5016432;28;20193;-50
2023/10/08 02:38:21;;;;;;;512.07;216.57;;;;;;;;;;5019150;28;20214;-50
2023/10/08 02:40:47;;;;;;;500.83;208.17;;;;;;;;;;5027795;28;20214;-50
2023/10/08 02:43:17;;;;;;;500.27;209.47;;;;;;;;;;5028985;28;20184;-50
2023/10/08 02:45:47;;;;;;;483.13;203.97;;;;;;;;;;5022724;28;20654;-49
2023/10/08 02:48:13;;;;;;;478.60;198.07;;;;;;;;;;5021711;28;20184;-50
2023/10/08 02:50:40;;;;;;;521.50;216.67;;;;;;;;;;5020674;28;20187;-49
2023/10/08 02:53:10;;;;;;;473.73;192.20;;;;;;;;;;5021528;28;20192;-50
2023/10/08 02:55:41;;;;;;;494.03;209.73;;;;;;;;;;5019248;28;20278;-50
2023/10/08 02:58:13;;;;;;;687.60;340.43;;;;;;;;;;5017565;28;20402;-50
2023/10/08 03:00:40;;;;;;;540.37;230.70;;;;;;;;;;5012153;28;20843;-49
2023/10/08 03:03:15;;;;;;;555.67;243.80;;;;;;;;;;5005835;28;20188;-49
2023/10/08 03:05:43;;;;;;;546.60;237.47;;;;;;;;;;5006838;28;20187;-49
2023/10/08 03:08:10;;;;;;;498.53;210.50;;;;;;;;;;5026216;28;20191;-50
2023/10/08 03:10:37;;;;;;;478.23;197.47;;;;;;;;;;5025391;28;20223;-49
2023/10/08 03:13:09;;;;;;;515.50;219.67;;;;;;;;;;5023169;28;20196;-49
2023/10/08 03:15:40;;;;;;;479.10;202.60;;;;;;;;;;5011687;28;20265;-49
2023/10/08 03:18:14;;;;;;;465.73;189.60;;;;;;;;;;5021771;28;20199;-48
2023/10/08 03:20:45;;;;;;;510.63;210.33;;;;;;;;;;5010588;28;21254;-49
2023/10/08 03:23:12;;;;;;;445.03;179.70;;;;;;;;;;5024031;28;20701;-49
2023/10/08 03:25:42;;;;;;;482.43;197.77;;;;;;;;;;5026997;28;20279;-49
2023/10/08 03:28:12;;;;;;;511.70;215.63;;;;;;;;;;5023642;28;20597;-50
2023/10/08 03:30:47;;;;;;;487.77;197.77;;;;;;;;;;5019839;28;20192;-49
2023/10/08 03:33:21;;;;;;;516.10;217.37;;;;;;;;;;5020054;28;20186;-49
2023/10/08 03:35:49;;;;;;;491.57;202.07;;;;;;;;;;4996617;28;20189;-49
2023/10/08 03:38:21;;;;;;;493.80;205.30;;;;;;;;;;5026435;28;20202;-49
2023/10/08 03:40:49;;;;;;;491.57;209.50;;;;;;;;;;5024130;28;20496;-50
2023/10/08 03:43:33;;;;;;;492.60;208.27;;;;;;;;;;5023648;28;20245;-49
2023/10/08 03:46:05;;;;;;;475.83;195.77;;;;;;;;;;5021978;28;20580;-50
2023/10/08 03:48:36;;;;;;;491.63;197.27;;;;;;;;;;5025562;28;20212;-50
2023/10/08 03:51:06;;;;;;;482.97;200.20;;;;;;;;;;5019962;28;20188;-49
2023/10/08 03:53:42;;;;;;;516.60;211.37;;;;;;;;;;5023860;28;20238;-50
2023/10/08 03:56:08;;;;;;;482.60;199.97;;;;;;;;;;5026512;28;20191;-50
2023/10/08 03:58:41;;;;;;;458.87;187.27;;;;;;;;;;5028917;28;20226;-49
2023/10/08 04:01:15;;;;;;;516.13;220.13;;;;;;;;;;5016957;28;20670;-50
2023/10/08 04:06:16;;;;;;;503.07;209.60;;;;;;;;;;5015040;28;20192;-49
2023/10/08 04:08:42;;;;;;;505.83;211.33;;;;;;;;;;5029541;28;20261;-49
2023/10/08 04:13:54;;;;;;;484.87;194.23;;;;;;;;;;5030145;28;20210;-50
2023/10/08 04:16:20;;;;;;;480.93;198.17;;;;;;;;;;5021623;28;20611;-50
2023/10/08 04:18:50;;;;;;;488.73;203.87;;;;;;;;;;5026189;28;20235;-49
2023/10/08 04:21:18;;;;;;;442.23;180.20;;;;;;;;;;5029851;28;20179;-50
2023/10/08 04:23:44;;;;;;;478.17;196.83;;;;;;;;;;5025892;28;20679;-50
2023/10/08 04:26:10;;;;;;;483.00;194.47;;;;;;;;;;5026353;28;20187;-50
2023/10/08 04:28:37;;;;;;;527.03;223.17;;;;;;;;;;5021443;28;20677;-50
2023/10/08 04:31:14;;;;;;;492.50;203.50;;;;;;;;;;5021930;28;20543;-50
2023/10/08 04:33:44;;;;;;;490.67;202.53;;;;;;;;;;5032646;28;20693;-50
2023/10/08 04:36:17;;;;;;;449.63;183.07;;;;;;;;;;5022900;28;20682;-50
2023/10/08 04:38:45;;;;;;;541.47;224.90;;;;;;;;;;5025362;28;20207;-50
2023/10/08 04:41:11;;;;;;;475.50;195.97;;;;;;;;;;5020500;28;20195;-49
2023/10/08 04:43:37;;;;;;;483.37;197.90;;;;;;;;;;5028042;28;20180;-49
2023/10/08 04:46:21;;;;;;;512.37;209.23;;;;;;;;;;5018758;28;20188;-49
2023/10/08 04:48:49;;;;;;;476.50;191.57;;;;;;;;;;5028311;28;20235;-49
2023/10/08 04:51:17;;;;;;;516.93;218.67;;;;;;;;;;5019708;28;20187;-49
2023/10/08 04:53:43;;;;;;;512.87;214.97;;;;;;;;;;5021272;28;20226;-50
2023/10/08 04:56:13;;;;;;;499.47;215.20;;;;;;;;;;5015753;28;20654;-50
2023/10/08 04:58:40;;;;;;;460.63;190.40;;;;;;;;;;5025347;28;20326;-50
2023/10/08 05:01:17;;;;;;;482.07;190.00;;;;;;;;;;5023520;28;20216;-50
2023/10/08 05:09:10;;;;;;;534.13;217.77;;;;;;;;;;5030074;28;20203;-49
2023/10/08 05:14:27;;;;;;;458.67;185.30;;;;;;;;;;5018138;28;20203;-50
2023/10/08 05:38:16;;;;;;;454.30;180.30;;;;;;;;;;5026869;28;20247;-50
2023/10/08 05:41:04;;;;;;;475.30;194.70;;;;;;;;;;5026911;28;20273;-50
2023/10/08 05:54:35;;;;;;;770.77;397.67;;;;;;;;;;5003448;28;20249;-50
2023/10/08 05:59:39;;;;;;;571.27;251.80;;;;;;;;;;5011469;28;20269;-50
2023/10/08 06:10:41;;;;;;;459.97;193.23;;;;;;;;;;5021045;28;20361;-50
2023/10/08 06:13:13;;;;;;;477.93;200.80;;;;;;;;;;5021239;28;20578;-50
2023/10/08 06:16:04;;;;;;;513.63;222.03;;;;;;;;;;5006224;28;20226;-51
2023/10/08 06:18:31;;;;;;;475.63;196.17;;;;;;;;;;5019713;28;20651;-50
2023/10/08 06:21:01;;;;;;;525.03;227.43;;;;;;;;;;5010782;28;20231;-50
2023/10/08 06:23:31;;;;;;;573.80;257.67;;;;;;;;;;5015956;28;20399;-50
2023/10/08 06:25:58;;;;;;;486.87;199.93;;;;;;;;;;5026906;28;20175;-50
2023/10/08 06:28:25;;;;;;;489.50;204.83;;;;;;;;;;5022268;28;20179;-50
2023/10/08 06:30:53;;;;;;;443.03;174.13;;;;;;;;;;5024425;28;20278;-51
2023/10/08 06:33:20;;;;;;;510.33;220.47;;;;;;;;;;5014781;28;20283;-50
2023/10/08 06:36:01;;;;;;;495.80;201.30;;;;;;;;;;5017940;28;20199;-50
2023/10/08 06:38:27;;;;;;;495.33;204.90;;;;;;;;;;5025315;28;20603;-50
2023/10/08 06:40:56;;;;;;;465.27;189.10;;;;;;;;;;5028404;28;20210;-50
2023/10/08 06:43:24;;;;;;;481.00;194.50;;;;;;;;;;5014661;28;20880;-51
2023/10/08 06:45:53;;;;;;;469.33;189.47;;;;;;;;;;5018426;28;20186;-50
2023/10/08 06:48:20;;;;;;;495.83;200.87;;;;;;;;;;5030089;28;20183;-50
2023/10/08 06:50:49;;;;;;;528.10;225.90;;;;;;;;;;5013608;28;20192;-50
2023/10/08 06:53:17;;;;;;;457.73;184.93;;;;;;;;;;5021372;28;20180;-49
2023/10/08 06:55:44;;;;;;;490.17;202.10;;;;;;;;;;5018099;28;20223;-51
2023/10/08 06:58:11;;;;;;;474.47;198.27;;;;;;;;;;5024948;28;20828;-50
2023/10/08 07:00:46;;;;;;;547.63;240.50;;;;;;;;;;5009663;28;20368;-50
2023/10/08 07:03:17;;;;;;;474.33;191.20;;;;;;;;;;5026080;28;20850;-51
2023/10/08 07:05:53;;;;;;;458.60;185.93;;;;;;;;;;5015500;28;20251;-51
2023/10/08 07:08:19;;;;;;;471.10;198.23;;;;;;;;;;5020975;28;20198;-50
2023/10/08 07:10:46;;;;;;;456.87;185.50;;;;;;;;;;5025497;28;20202;-51
2023/10/08 07:13:13;;;;;;;523.23;226.00;;;;;;;;;;5013973;28;20192;-50
2023/10/08 07:15:40;;;;;;;496.10;206.47;;;;;;;;;;5020475;28;20226;-50
2023/10/08 07:18:12;;;;;;;470.07;191.37;;;;;;;;;;5026717;28;20185;-51
2023/10/08 07:20:38;;;;;;;511.63;217.03;;;;;;;;;;5018587;28;20871;-51
2023/10/08 07:23:24;;;;;;;451.77;189.53;;;;;;;;;;5021397;28;20186;-51
2023/10/08 07:25:58;;;;;;;535.57;233.43;;;;;;;;;;5013287;28;20180;-51
2023/10/08 07:28:25;;;;;;;531.67;226.33;;;;;;;;;;5016184;28;20199;-49
2023/10/08 07:30:52;;;;;;;489.20;202.77;;;;;;;;;;5006900;28;20186;-49
2023/10/08 07:33:18;;;;;;;510.37;218.93;;;;;;;;;;5010176;28;20764;-48
2023/10/08 07:35:57;;;;;;;526.00;223.70;;;;;;;;;;5020757;28;20179;-48
2023/10/08 07:38:23;;;;;;;520.20;214.80;;;;;;;;;;5012773;28;20206;-47
2023/10/08 07:40:50;;;;;;;507.17;211.43;;;;;;;;;;5016808;28;20337;-48
2023/10/08 07:43:19;;;;;;;473.60;196.97;;;;;;;;;;5026689;28;20190;-48
2023/10/08 07:45:45;;;;;;;453.43;188.53;;;;;;;;;;5015671;28;20257;-49
2023/10/08 07:48:13;;;;;;;480.17;202.20;;;;;;;;;;5029138;28;20191;-49
2023/10/08 07:50:43;;;;;;;556.33;243.13;;;;;;;;;;5014526;28;20238;-49
2023/10/08 07:53:17;;;;;;;471.03;194.13;;;;;;;;;;5023269;28;20266;-49
2023/10/08 07:55:43;;;;;;;475.87;197.73;;;;;;;;;;5017421;28;20245;-49
2023/10/08 07:58:11;;;;;;;465.17;190.27;;;;;;;;;;5027187;28;20211;-50
2023/10/08 08:00:39;;;;;;;494.77;209.30;;;;;;;;;;5030447;28;20215;-49
2023/10/08 08:03:05;;;;;;;499.03;201.30;;;;;;;;;;5029520;28;20198;-50
2023/10/08 08:05:31;;;;;;;512.03;218.67;;;;;;;;;;5021984;28;20184;-49
2023/10/08 08:07:59;;;;;;;499.17;205.17;;;;;;;;;;5032031;28;20191;-49
2023/10/08 08:10:25;;;;;;;500.33;208.93;;;;;;;;;;5026116;28;20206;-49
2023/10/08 08:12:56;;;;;;;516.53;224.33;;;;;;;;;;5031599;28;20184;-49
2023/10/08 08:15:22;;;;;;;497.17;204.97;;;;;;;;;;5024322;28;20184;-49
2023/10/08 08:17:48;;;;;;;513.47;216.10;;;;;;;;;;5028029;28;20753;-49
2023/10/08 08:20:18;;;;;;;468.00;190.23;;;;;;;;;;5028684;28;20220;-50
2023/10/08 08:22:50;;;;;;;485.33;210.67;;;;;;;;;;5027232;28;20191;-49
2023/10/08 08:25:33;;;;;;;464.83;192.43;;;;;;;;;;5027054;28;20290;-49
2023/10/08 08:27:59;;;;;;;488.73;201.43;;;;;;;;;;5030197;28;20660;-50
2023/10/08 08:30:26;;;;;;;503.37;211.33;;;;;;;;;;5021001;28;20208;-50
2023/10/08 08:32:54;;;;;;;529.47;233.10;;;;;;;;;;5030360;28;20179;-50
2023/10/08 08:35:20;;;;;;;448.80;187.73;;;;;;;;;;5029183;28;20210;-50
2023/10/08 08:37:52;;;;;;;470.23;198.67;;;;;;;;;;5023278;28;20570;-49
2023/10/08 08:40:19;;;;;;;486.23;205.13;;;;;;;;;;5032930;28;20265;-49
2023/10/08 08:42:48;;;;;;;524.90;235.47;;;;;;;;;;5019568;28;20558;-50
2023/10/08 08:45:20;;;;;;;492.20;204.20;;;;;;;;;;5029252;28;20235;-50
2023/10/08 08:47:46;;;;;;;559.33;254.13;;;;;;;;;;5006350;28;20183;-50
2023/10/08 08:50:12;;;;;;;475.23;196.97;;;;;;;;;;5009563;28;20203;-50
2023/10/08 08:52:39;;;;;;;569.40;252.13;;;;;;;;;;5013111;28;20257;-50
2023/10/08 08:55:09;;;;;;;473.83;194.37;;;;;;;;;;5021677;28;20400;-50
2023/10/08 08:57:39;;;;;;;609.33;280.03;;;;;;;;;;5005103;28;20198;-50
2023/10/08 09:00:10;;;;;;;420.63;175.67;;;;;;;;;;5027442;28;20321;-50
2023/10/08 09:02:37;;;;;;;483.13;210.73;;;;;;;;;;5025588;28;20180;-50
2023/10/08 09:05:23;;;;;;;520.20;223.33;;;;;;;;;;5012945;28;20180;-50
2023/10/08 09:07:52;;;;;;;525.97;224.77;;;;;;;;;;5020180;28;20275;-50
2023/10/08 09:10:18;;;;;;;488.27;206.10;;;;;;;;;;5014979;28;20212;-50
2023/10/08 09:12:45;;;;;;;508.03;220.83;;;;;;;;;;5026320;28;20190;-50
2023/10/08 09:15:11;;;;;;;463.30;195.47;;;;;;;;;;5023246;28;20411;-50
2023/10/08 09:17:40;;;;;;;541.53;235.57;;;;;;;;;;4982982;28;20201;-49
2023/10/08 09:20:07;;;;;;;500.10;220.50;;;;;;;;;;5012081;28;20675;-50
2023/10/08 09:22:35;;;;;;;612.87;287.93;;;;;;;;;;5003645;28;20180;-50
2023/10/08 09:25:07;;;;;;;553.20;251.10;;;;;;;;;;5003347;28;21297;-51
2023/10/08 09:27:33;;;;;;;439.73;184.20;;;;;;;;;;5015601;28;20335;-50
2023/10/08 09:30:07;;;;;;;469.57;200.83;;;;;;;;;;5015996;28;20276;-50
2023/10/08 09:32:33;;;;;;;470.60;198.17;;;;;;;;;;5014964;28;20442;-50
2023/10/08 09:35:01;;;;;;;491.03;209.87;;;;;;;;;;5007417;28;20195;-50
2023/10/08 09:37:28;;;;;;;410.87;169.53;;;;;;;;;;5029471;28;20448;-50
2023/10/08 09:39:55;;;;;;;440.80;197.77;;;;;;;;;;5013966;28;20238;-50
2023/10/08 09:42:24;;;;;;;376.57;160.43;;;;;;;;;;5032514;28;20195;-50
2023/10/08 09:44:50;;;;;;;383.80;164.33;;;;;;;;;;5032262;28;20262;-50
2023/10/08 09:47:22;;;;;;;364.70;153.40;;;;;;;;;;5035806;28;20176;-50
2023/10/08 09:49:57;;;;;;;379.47;163.67;;;;;;;;;;5036857;28;20212;-50
2023/10/08 09:52:29;;;;;;;372.23;159.43;;;;;;;;;;5027597;28;20194;-50
2023/10/08 09:55:03;;;;;;;361.53;151.47;;;;;;;;;;5031272;28;20630;-51
2023/10/08 09:57:29;;;;;;;387.03;165.27;;;;;;;;;;5030987;28;20622;-50
2023/10/08 09:59:57;;;;;;;398.63;175.87;;;;;;;;;;5030763;28;20302;-50
2023/10/08 10:02:26;;;;;;;378.33;162.83;;;;;;;;;;5037686;28;20187;-51
2023/10/08 10:04:52;;;;;;;387.37;167.87;;;;;;;;;;5025010;28;20192;-50
2023/10/08 10:07:20;;;;;;;367.97;154.40;;;;;;;;;;5033934;28;20196;-51
2023/10/08 10:09:47;;;;;;;398.47;171.40;;;;;;;;;;5026193;28;20213;-50
2023/10/08 10:12:14;;;;;;;403.23;177.80;;;;;;;;;;5024551;28;20246;-50
2023/10/08 10:17:26;;;;;;;377.33;159.93;;;;;;;;;;4999450;28;20212;-50
2023/10/08 10:19:56;;;;;;;392.10;171.63;;;;;;;;;;4992730;28;20214;-50
2023/10/08 10:22:29;;;;;;;370.20;159.73;;;;;;;;;;4994469;28;20199;-50
2023/10/08 10:24:55;;;;;;;390.50;168.33;;;;;;;;;;4990058;28;20227;-50
2023/10/08 10:27:21;;;;;;;372.67;159.70;;;;;;;;;;4988264;28;20239;-50
2023/10/08 10:29:48;;;;;;;384.57;168.67;;;;;;;;;;4987029;28;20258;-50
2023/10/08 10:32:18;;;;;;;373.53;161.97;;;;;;;;;;4994196;28;20215;-50
2023/10/08 10:34:47;;;;;;;419.50;185.17;;;;;;;;;;4988016;28;20287;-51
2023/10/08 10:37:19;;;;;;;385.63;165.70;;;;;;;;;;4991171;28;20216;-50
2023/10/08 10:39:53;;;;;;;456.53;209.83;;;;;;;;;;4989603;28;20211;-51
2023/10/08 10:42:22;;;;;;;407.53;182.90;;;;;;;;;;4980728;28;20185;-51
2023/10/08 10:44:53;;;;;;;382.00;166.47;;;;;;;;;;4992688;28;20870;-50
2023/10/08 10:47:25;;;;;;;463.73;192.20;;;;;;;;;;4972508;28;20561;-50
2023/10/08 10:52:54;;;;;;;537.40;244.70;;;;;;;;;;4966486;28;20534;-50
2023/10/08 10:55:31;;;;;;;453.77;194.50;;;;;;;;;;4973290;28;20533;-50
2023/10/08 10:58:11;;;;;;;462.90;193.57;;;;;;;;;;4963055;28;20186;-49
2023/10/08 11:03:04;;;;;;;478.20;199.87;;;;;;;;;;4974560;28;20292;-49
2023/10/08 11:05:31;;;;;;;454.60;189.90;;;;;;;;;;4963571;28;20201;-49
2023/10/08 11:08:05;;;;;;;473.33;198.30;;;;;;;;;;4971988;28;20633;-50
2023/10/08 11:10:31;;;;;;;482.20;210.47;;;;;;;;;;4966165;28;20276;-49
2023/10/08 11:13:00;;;;;;;487.47;220.40;;;;;;;;;;4969213;28;20248;-50
2023/10/08 11:15:37;;;;;;;472.30;200.23;;;;;;;;;;4968817;28;20202;-50
2023/10/08 11:18:08;;;;;;;473.40;211.63;;;;;;;;;;4961327;28;20663;-49
2023/10/08 11:20:39;;;;;;;502.03;223.40;;;;;;;;;;4951507;28;20275;-50
2023/10/08 11:23:17;;;;;;;471.07;204.33;;;;;;;;;;4950243;28;20620;-50
2023/10/08 11:25:53;;;;;;;517.93;234.27;;;;;;;;;;4965701;28;20228;-50
2023/10/08 11:28:19;;;;;;;451.63;195.80;;;;;;;;;;4966414;28;20229;-50
2023/10/08 11:30:46;;;;;;;479.40;214.00;;;;;;;;;;4966478;28;20664;-50
2023/10/08 11:33:15;;;;;;;460.50;209.60;;;;;;;;;;4971942;28;20229;-50
2023/10/08 11:35:55;;;;;;;515.77;238.73;;;;;;;;;;4961497;28;20819;-50
2023/10/08 11:38:22;;;;;;;456.20;200.90;;;;;;;;;;4963566;28;20194;-51
2023/10/08 11:40:56;;;;;;;483.80;215.80;;;;;;;;;;4967327;28;20205;-50
2023/10/08 11:43:22;;;;;;;481.53;214.77;;;;;;;;;;4966001;28;20200;-50
2023/10/08 11:45:48;;;;;;;505.60;228.50;;;;;;;;;;4958316;28;20206;-51
2023/10/08 11:48:28;;;;;;;498.47;213.40;;;;;;;;;;4963358;28;20196;-50
2023/10/08 11:50:57;;;;;;;536.20;251.27;;;;;;;;;;4958824;28;22065;-50
2023/10/08 11:53:24;;;;;;;506.00;234.70;;;;;;;;;;4962126;28;20244;-51
2023/10/08 11:55:56;;;;;;;510.10;229.27;;;;;;;;;;4971692;28;20189;-50
2023/10/08 11:58:35;;;;;;;577.23;276.87;;;;;;;;;;4962171;28;20692;-50
2023/10/08 12:01:03;;;;;;;668.70;335.47;;;;;;;;;;4948221;28;20639;-50
2023/10/08 12:03:29;;;;;;;508.57;228.73;;;;;;;;;;4952800;28;20232;-51
2023/10/08 12:06:01;;;;;;;463.47;208.43;;;;;;;;;;4964532;28;20276;-50
2023/10/08 12:08:28;;;;;;;453.27;207.07;;;;;;;;;;4970884;28;20320;-50
2023/10/08 12:10:54;;;;;;;565.10;262.10;;;;;;;;;;4961124;28;20186;-50
2023/10/08 12:13:28;;;;;;;487.27;225.10;;;;;;;;;;4966508;28;20194;-50
2023/10/08 12:16:06;;;;;;;500.90;226.40;;;;;;;;;;4973404;28;20208;-50
2023/10/08 12:18:39;;;;;;;501.97;223.10;;;;;;;;;;4971982;28;20205;-50
2023/10/08 12:21:10;;;;;;;514.47;235.43;;;;;;;;;;4962300;28;20273;-50
2023/10/08 12:23:37;;;;;;;517.10;233.23;;;;;;;;;;4958614;28;20716;-50
2023/10/08 12:26:03;;;;;;;527.97;244.83;;;;;;;;;;4964733;28;20276;-50
2023/10/08 12:28:29;;;;;;;444.43;195.73;;;;;;;;;;4970410;28;20206;-50
2023/10/08 12:31:00;;;;;;;519.03;245.87;;;;;;;;;;4963964;28;20184;-50
2023/10/08 12:33:26;;;;;;;471.43;210.47;;;;;;;;;;4970444;28;20294;-50
2023/10/08 12:35:53;;;;;;;502.57;222.73;;;;;;;;;;4968964;28;20185;-50
2023/10/08 12:38:22;;;;;;;516.90;231.97;;;;;;;;;;4964497;28;20184;-50
2023/10/08 12:40:54;;;;;;;550.93;255.87;;;;;;;;;;4965781;28;20209;-50
2023/10/08 12:43:20;;;;;;;451.20;201.57;;;;;;;;;;4978046;28;20189;-51
2023/10/08 12:45:53;;;;;;;487.40;226.00;;;;;;;;;;4968749;28;20856;-51
2023/10/08 12:48:22;;;;;;;518.30;243.00;;;;;;;;;;4967483;28;20202;-50
2023/10/08 12:50:58;;;;;;;489.47;230.23;;;;;;;;;;4969693;28;20186;-50
2023/10/08 12:53:27;;;;;;;485.60;216.67;;;;;;;;;;4972147;28;20185;-50
2023/10/08 12:55:58;;;;;;;536.40;244.03;;;;;;;;;;4978073;28;20601;-50
2023/10/08 12:58:25;;;;;;;507.03;236.97;;;;;;;;;;4968861;28;20194;-50
2023/10/08 13:00:57;;;;;;;527.53;244.60;;;;;;;;;;4976808;28;20217;-50
2023/10/08 13:03:23;;;;;;;489.77;228.50;;;;;;;;;;4973860;28;20185;-50
2023/10/08 13:05:52;;;;;;;516.03;249.50;;;;;;;;;;4964168;28;20446;-50
2023/10/08 13:08:19;;;;;;;481.33;225.50;;;;;;;;;;4962161;28;20212;-51
2023/10/08 13:10:45;;;;;;;535.13;249.93;;;;;;;;;;4978972;28;20627;-51
2023/10/08 13:13:12;;;;;;;506.67;237.10;;;;;;;;;;4967654;28;20700;-50
2023/10/08 13:15:38;;;;;;;533.77;256.43;;;;;;;;;;4960742;28;20270;-50
2023/10/08 13:18:06;;;;;;;543.97;269.00;;;;;;;;;;4968558;28;20862;-51
2023/10/08 13:20:33;;;;;;;465.73;232.63;;;;;;;;;;4968619;28;20274;-51
2023/10/08 13:23:00;;;;;;;490.00;265.37;;;;;;;;;;4969696;28;21999;-51
2023/10/08 13:25:26;;;;;;;490.87;248.23;;;;;;;;;;4968620;28;20270;-51
2023/10/08 13:27:52;;;;;;;514.13;281.17;;;;;;;;;;4962170;28;20194;-51
2023/10/08 13:30:18;;;;;;;517.43;278.43;;;;;;;;;;4967371;28;20686;-51
2023/10/08 13:32:45;;;;;;;556.50;311.10;;;;;;;;;;4982173;28;20287;-51
2023/10/08 13:35:11;;;;;;;513.40;286.13;;;;;;;;;;4968698;28;20201;-51
2023/10/08 13:37:37;;;;;;;502.33;286.17;;;;;;;;;;4970584;28;20246;-51
2023/10/08 13:40:03;;;;;;;504.97;276.17;;;;;;;;;;4968690;28;20206;-51
2023/10/08 13:42:29;;;;;;;473.30;271.83;;;;;;;;;;4963343;28;20155;-51
2023/10/08 13:44:59;;;;;;;469.60;271.67;;;;;;;;;;4975627;28;20275;-51
2023/10/08 13:47:26;;;;;;;509.13;300.80;;;;;;;;;;4970240;28;20180;-51
2023/10/08 13:49:57;;;;;;;556.77;320.37;;;;;;;;;;4963974;28;20220;-51
2023/10/08 13:52:26;;;;;;;497.77;284.40;;;;;;;;;;4972852;28;20209;-51
2023/10/08 13:54:53;;;;;;;535.03;313.37;;;;;;;;;;4966664;28;20731;-51
2023/10/08 13:57:26;;;;;;;511.23;316.20;;;;;;;;;;4971027;28;20174;-51
2023/10/08 13:59:53;;;;;;;520.97;308.63;;;;;;;;;;4971985;28;20237;-51
2023/10/08 14:02:21;;;;;;;478.43;292.23;;;;;;;;;;4965971;28;20480;-51
2023/10/08 14:04:50;;;;;;;514.53;312.67;;;;;;;;;;4963487;28;20177;-51
2023/10/08 14:07:16;;;;;;;516.03;308.83;;;;;;;;;;4965074;28;20185;-51
2023/10/08 14:09:45;;;;;;;531.70;329.23;;;;;;;;;;4964846;28;20677;-51
2023/10/08 14:12:11;;;;;;;516.77;313.73;;;;;;;;;;4968659;28;20588;-51
2023/10/08 14:14:41;;;;;;;492.73;315.57;;;;;;;;;;4966019;28;20320;-52
2023/10/08 14:17:07;;;;;;;505.53;326.33;;;;;;;;;;4968527;28;20204;-51
2023/10/08 14:19:59;;;;;;;463.97;310.57;;;;;;;;;;4969594;28;20228;-51
2023/10/08 14:22:26;;;;;;;509.80;346.30;;;;;;;;;;4971137;28;25091;-52
2023/10/08 14:24:58;;;;;;;499.50;343.13;;;;;;;;;;4960282;28;20410;-52
2023/10/08 14:27:39;;;;;;;500.57;337.50;;;;;;;;;;4966770;28;20300;-52
2023/10/08 14:30:14;;;;;;;522.70;356.23;;;;;;;;;;4962963;28;20296;-51
2023/10/08 14:32:45;;;;;;;530.17;354.93;;;;;;;;;;4967860;28;21571;-51
2023/10/08 14:43:24;;;;;;;506.27;337.37;;;;;;;;;;4963611;28;20249;-52
2023/10/08 14:45:52;;;;;;;540.87;340.70;;;;;;;;;;4970358;28;20514;-51
2023/10/08 14:48:18;;;;;;;517.07;342.10;;;;;;;;;;4968887;28;20181;-52
2023/10/08 14:50:45;;;;;;;559.33;367.30;;;;;;;;;;4960260;28;20201;-51
2023/10/08 14:53:11;;;;;;;526.83;353.40;;;;;;;;;;4969195;28;20659;-51
2023/10/08 14:55:38;;;;;;;497.77;333.47;;;;;;;;;;4966236;28;20220;-51
2023/10/08 14:58:10;;;;;;;488.07;331.67;;;;;;;;;;4971664;28;20260;-51
2023/10/08 15:00:37;;;;;;;451.67;299.57;;;;;;;;;;4967890;28;20248;-51
2023/10/08 15:03:03;;;;;;;512.70;329.13;;;;;;;;;;4962669;28;20599;-51
2023/10/08 15:05:31;;;;;;;512.93;314.50;;;;;;;;;;4963803;28;20181;-51
2023/10/08 15:07:57;;;;;;;534.47;322.73;;;;;;;;;;4964428;28;20190;-51
2023/10/08 15:10:23;;;;;;;550.50;324.47;;;;;;;;;;4968826;28;20209;-51
2023/10/08 15:12:49;;;;;;;552.00;325.37;;;;;;;;;;4969158;28;20181;-51
2023/10/08 15:15:16;;;;;;;549.73;307.20;;;;;;;;;;4958282;28;20190;-51
2023/10/08 15:17:43;;;;;;;523.70;280.20;;;;;;;;;;4983003;28;20224;-51
2023/10/08 15:20:14;;;;;;;559.73;312.63;;;;;;;;;;4973291;28;20221;-51
2023/10/08 15:22:40;;;;;;;514.40;271.80;;;;;;;;;;4971541;28;20431;-51